Hauptseite
METAR-TAF:

METAR-TAF

Flughäfen :

Puvirnituq, Québec, Kanada

Breite: 60-03N, Länge: 077-17W, Höhe: 23 m

Beobachtung

Neuester Wetterbericht von vor 16 Minuten, um 12:00 UTC
Wind 13 kt aus Ost
Temperatur -15°C
Luftfeuchtigkeit 92%
Luftdruck 1005 hPa
Sichtweite: 14.5 km
Geschlossene Wolkendecke in der Höhe von 600 ft
Schnee leicht

METAR: CYPX 191200Z AUTO 09013KT 9SM -SN OVC006 M15/M16 A2967 RMK SLP053

Zeit: 07:16 (12:16 UTC)

Prognose

Neuester Wetterbericht von vor 38 Minuten, um 11:38 UTC
Gültige Prognose vom 19 um 12 UTC bis 19 um 24 UTC
Wind 10 kt aus Ost
Sichtweite: 10 km
Geschlossene Wolkendecke in der Höhe von 600 ft
Schnee leicht
Zeitweise
vom 19 um 12 UTC bis 19 um 24 UTC
Sichtweite: 10 km
Geschlossene Wolkendecke in der Höhe von 1200 ft

TAF: CYPX 191138Z 1912/1924 09010KT P6SM -SN OVC006 TEMPO 1912/1924 P6SM NSW OVC012 RMK FCST BASED ON AUTO OBS. NXT FCST BY 191800Z

Wetterbeobachtungen und Prognosen von mehr als 4000 Flughäfen (METAR und TAF Bericht).

Die verfügbaren Stationen werden durch gelbe und rote Markierungen auf der Karte dargestellt.

Führen Sie die Maus auf sie, um den Namen der Station zu sehen.

Darauf klicken, um die Beobachtung von Wetterbeobachtungen und Prognosen zu sehen.

Um die Karte zu ändern : klicken Sie auf den grünen Tasten mit einem schwarzen Kreuz Zum Vergrößern, auf den grünen Button mit einem Gedankenstrich zu verkleinern, oder auf die grünen Pfeile für benachbarte Karten.


METAR-TAF: